Time;durP1;ratioP1;P1;durP2;ratioP2;P2;SDS_P1;SDS_P2;PMS_P1;PMS_P2;Temp;Humidity;BMP_temperature;BMP_pressure;BME280_temperature;BME280_humidity;BME280_pressure;Samples;Min_cycle;Max_cycle;Signal;HPM_P1;HPM_P2
2024/01/15 00:00:42;;;;;;;2.42;0.73;;;-0.40;99.90;;;;;;5058652;28;20504;-90
2024/01/15 00:03:09;;;;;;;1.58;0.50;;;-0.40;99.90;;;;;;5056987;28;20025;-89
2024/01/15 00:05:35;;;;;;;3.35;0.60;;;-0.40;99.90;;;;;;5040661;28;20054;-90
2024/01/15 00:08:01;;;;;;;2.00;0.65;;;-0.40;99.90;;;;;;5057651;28;20024;-91
2024/01/15 00:10:26;;;;;;;5.13;0.70;;;-0.40;99.90;;;;;;5057823;28;20027;-91
2024/01/15 00:12:52;;;;;;;0.80;0.47;;;-0.50;99.90;;;;;;5057916;28;20174;-90
2024/01/15 00:15:17;;;;;;;1.80;0.60;;;-0.50;99.90;;;;;;5057258;28;20039;-90
2024/01/15 00:17:43;;;;;;;1.67;0.80;;;-0.50;99.90;;;;;;5057659;28;20402;-90
2024/01/15 00:20:09;;;;;;;1.83;0.50;;;-0.60;99.90;;;;;;5058106;28;20051;-91
2024/01/15 00:22:35;;;;;;;0.82;0.63;;;-0.60;99.90;;;;;;5057649;28;20031;-91
2024/01/15 00:25:02;;;;;;;2.17;0.57;;;-0.70;99.90;;;;;;5074989;28;20033;-89
2024/01/15 00:27:27;;;;;;;1.45;0.50;;;-0.70;99.90;;;;;;5062250;28;20056;-89
2024/01/15 00:29:54;;;;;;;1.40;0.57;;;-0.70;99.90;;;;;;5062969;28;20049;-89
2024/01/15 00:32:20;;;;;;;2.25;0.90;;;-0.80;99.90;;;;;;5073503;28;20028;-90
2024/01/15 00:34:46;;;;;;;1.20;0.57;;;-0.80;99.90;;;;;;5072963;28;20025;-90
2024/01/15 00:37:12;;;;;;;1.63;0.50;;;-0.80;99.90;;;;;;5073756;28;20425;-90
2024/01/15 00:39:42;;;;;;;4.63;0.50;;;-0.90;99.90;;;;;;5074906;28;20071;-90
2024/01/15 00:42:08;;;;;;;1.67;0.60;;;-0.90;99.90;;;;;;5074545;28;20028;-89
2024/01/15 00:44:34;;;;;;;0.98;0.80;;;-0.90;99.90;;;;;;5072901;28;20162;-90
2024/01/15 00:47:01;;;;;;;2.47;0.52;;;-0.90;99.90;;;;;;5072612;28;20078;-90
2024/01/15 00:49:27;;;;;;;0.85;0.47;;;-0.80;99.90;;;;;;5071946;28;20028;-89
2024/01/15 00:51:53;;;;;;;0.70;0.50;;;-0.80;99.90;;;;;;5073157;28;20119;-90
2024/01/15 00:54:18;;;;;;;1.15;0.60;;;-0.70;99.90;;;;;;5070220;28;20033;-91
2024/01/15 00:56:44;;;;;;;6.25;1.10;;;-0.70;99.90;;;;;;5073505;28;20059;-89
2024/01/15 00:59:10;;;;;;;4.45;0.80;;;-0.60;99.90;;;;;;5071675;28;20020;-89
2024/01/15 01:01:37;;;;;;;4.00;0.68;;;-0.60;99.90;;;;;;5073233;28;20021;-90
2024/01/15 01:04:04;;;;;;;1.48;0.70;;;-0.60;99.90;;;;;;5072226;28;20052;-89
2024/01/15 01:06:30;;;;;;;1.77;0.70;;;-0.70;99.90;;;;;;5072601;28;20028;-90
2024/01/15 01:08:58;;;;;;;3.47;1.40;;;-0.70;99.90;;;;;;5073001;28;20032;-89
2024/01/15 01:11:24;;;;;;;1.73;0.60;;;-0.70;99.90;;;;;;5073354;28;20111;-88
2024/01/15 01:13:49;;;;;;;2.88;0.90;;;-0.70;99.90;;;;;;5073350;28;20854;-88
2024/01/15 01:16:15;;;;;;;1.17;0.80;;;-0.70;99.90;;;;;;5073349;28;20036;-89
2024/01/15 01:18:41;;;;;;;8.25;1.05;;;-0.80;99.90;;;;;;5073312;28;20020;-88
2024/01/15 01:21:06;;;;;;;4.90;1.00;;;-0.90;99.90;;;;;;5072345;28;20037;-90
2024/01/15 01:23:32;;;;;;;3.75;1.10;;;-0.90;99.90;;;;;;5072941;28;20039;-89
2024/01/15 01:25:58;;;;;;;1.58;0.95;;;-1.00;99.90;;;;;;5073295;28;20470;-89
2024/01/15 01:28:23;;;;;;;5.15;1.17;;;-1.00;99.90;;;;;;5073025;28;20028;-89
2024/01/15 01:30:49;;;;;;;3.13;1.50;;;-1.10;99.90;;;;;;5072749;28;20067;-89
2024/01/15 01:33:15;;;;;;;7.75;1.50;;;-1.10;99.90;;;;;;5072848;28;20035;-89
2024/01/15 01:35:41;;;;;;;4.28;1.40;;;-1.20;99.90;;;;;;5072798;28;20044;-91
2024/01/15 01:38:06;;;;;;;5.03;1.38;;;-1.20;99.90;;;;;;5056333;28;20116;-89
2024/01/15 01:40:32;;;;;;;5.65;1.70;;;-1.20;99.90;;;;;;5072686;28;20025;-89
2024/01/15 01:43:00;;;;;;;7.97;2.03;;;-1.20;99.90;;;;;;5072565;28;20535;-90
2024/01/15 01:45:26;;;;;;;4.25;1.40;;;-1.20;99.90;;;;;;5072624;28;20136;-88
2024/01/15 01:47:52;;;;;;;2.20;0.63;;;-1.20;99.90;;;;;;5072693;28;20052;-89
2024/01/15 01:50:17;;;;;;;7.03;1.95;;;-1.30;99.90;;;;;;5073775;28;20028;-88
2024/01/15 01:52:44;;;;;;;9.07;1.92;;;-1.20;99.90;;;;;;5072621;28;20023;-90
2024/01/15 01:55:12;;;;;;;9.43;2.00;;;-1.20;99.90;;;;;;5071596;28;20043;-89
2024/01/15 01:57:38;;;;;;;9.85;1.67;;;-1.30;99.90;;;;;;5055816;28;20029;-91
2024/01/15 02:00:06;;;;;;;7.00;1.70;;;-1.30;99.90;;;;;;5072418;28;20024;-90
2024/01/15 02:02:33;;;;;;;10.20;2.08;;;-1.30;99.90;;;;;;5072402;28;20052;-90
2024/01/15 02:04:59;;;;;;;6.45;1.90;;;-1.30;99.90;;;;;;5072478;28;20077;-91
2024/01/15 02:07:25;;;;;;;5.13;1.42;;;-1.30;99.90;;;;;;5072390;28;20028;-89
2024/01/15 02:09:50;;;;;;;5.07;2.10;;;-1.30;99.90;;;;;;5072600;28;20029;-89
2024/01/15 02:12:16;;;;;;;6.88;1.60;;;-1.20;99.90;;;;;;5072699;28;20525;-90
2024/01/15 02:14:42;;;;;;;9.68;2.80;;;-1.30;99.90;;;;;;5072643;28;20044;-90
2024/01/15 02:17:08;;;;;;;11.70;2.78;;;-1.30;99.90;;;;;;5072494;28;20020;-90
2024/01/15 02:19:33;;;;;;;12.88;2.90;;;-1.20;99.90;;;;;;5072413;28;20036;-90
2024/01/15 02:21:59;;;;;;;11.65;2.90;;;-1.30;99.90;;;;;;5072447;28;20110;-90
2024/01/15 02:24:26;;;;;;;9.80;2.45;;;-1.20;99.90;;;;;;5073321;28;20032;-90
2024/01/15 02:26:53;;;;;;;6.38;1.90;;;-1.30;99.90;;;;;;5072818;28;20021;-89
2024/01/15 02:29:18;;;;;;;6.60;1.77;;;-1.40;99.90;;;;;;5072334;28;20028;-88
2024/01/15 02:31:44;;;;;;;3.92;1.38;;;-1.40;99.90;;;;;;5072129;28;20490;-90
2024/01/15 02:34:10;;;;;;;7.45;1.60;;;-1.40;99.90;;;;;;5072340;28;20024;-90
2024/01/15 02:36:35;;;;;;;3.30;1.20;;;-1.40;99.90;;;;;;5072345;28;20097;-90
2024/01/15 02:39:01;;;;;;;2.80;0.90;;;-1.40;99.90;;;;;;5074510;28;20029;-89
2024/01/15 02:41:27;;;;;;;2.03;0.70;;;-1.40;99.90;;;;;;5074191;28;20509;-91
2024/01/15 02:43:52;;;;;;;5.70;1.77;;;-1.40;99.90;;;;;;5073354;28;20474;-90
2024/01/15 02:46:20;;;;;;;5.45;1.42;;;-1.40;99.90;;;;;;5072047;28;20063;-90
2024/01/15 02:48:45;;;;;;;4.53;0.80;;;-1.40;99.90;;;;;;5072045;28;20032;-90
2024/01/15 02:51:11;;;;;;;4.10;1.42;;;-1.50;99.90;;;;;;5073501;28;20036;-89
2024/01/15 02:53:37;;;;;;;7.85;2.35;;;-1.50;99.90;;;;;;5072154;28;20504;-91
2024/01/15 02:56:04;;;;;;;4.57;1.30;;;-1.50;99.90;;;;;;5072200;28;20037;-90
2024/01/15 02:58:30;;;;;;;4.28;1.10;;;-1.50;99.90;;;;;;5072414;28;20024;-89
2024/01/15 03:00:57;;;;;;;4.55;0.80;;;-1.50;99.90;;;;;;5072305;28;20040;-90
2024/01/15 03:03:22;;;;;;;4.10;1.38;;;-1.50;99.90;;;;;;5072651;28;20070;-90
2024/01/15 03:05:48;;;;;;;1.42;0.68;;;-1.50;99.90;;;;;;5072259;28;20355;-89
2024/01/15 03:08:14;;;;;;;3.75;1.00;;;-1.50;99.90;;;;;;5075140;28;20048;-90
2024/01/15 03:10:39;;;;;;;6.65;1.65;;;-1.60;99.90;;;;;;5075340;28;20390;-91
2024/01/15 03:13:05;;;;;;;3.35;0.88;;;-1.60;99.90;;;;;;5075323;28;20029;-89
2024/01/15 03:15:31;;;;;;;1.60;0.95;;;-1.60;99.90;;;;;;5075222;28;20032;-89
2024/01/15 03:17:57;;;;;;;4.47;0.63;;;-1.60;99.90;;;;;;5074900;28;20031;-92
2024/01/15 03:20:22;;;;;;;2.67;1.00;;;-1.60;99.90;;;;;;5075314;28;20474;-90
2024/01/15 03:22:49;;;;;;;18.55;3.25;;;-1.60;99.90;;;;;;5075834;28;20017;-90
2024/01/15 03:25:14;;;;;;;4.38;1.17;;;-1.60;99.90;;;;;;5075904;28;20032;-89
2024/01/15 03:27:41;;;;;;;6.78;1.27;;;-1.60;99.90;;;;;;5075426;28;20072;-89
2024/01/15 03:30:07;;;;;;;4.82;0.68;;;-1.70;99.90;;;;;;5075567;28;20041;-90
2024/01/15 03:32:34;;;;;;;4.47;1.52;;;-1.70;99.90;;;;;;5075299;28;20032;-90
2024/01/15 03:35:01;;;;;;;6.38;1.20;;;-1.70;99.90;;;;;;5076150;28;20490;-90
2024/01/15 03:37:27;;;;;;;3.10;0.70;;;-1.80;99.90;;;;;;5075895;28;20497;-91
2024/01/15 03:39:53;;;;;;;5.32;0.68;;;-1.80;99.90;;;;;;5076343;28;20024;-91
2024/01/15 03:42:18;;;;;;;1.40;0.70;;;-1.80;99.90;;;;;;5075758;28;20084;-90
2024/01/15 03:44:44;;;;;;;2.25;0.50;;;-1.80;99.90;;;;;;5076312;28;20492;-90
2024/01/15 03:47:10;;;;;;;3.72;0.77;;;-1.90;99.90;;;;;;5075988;28;20063;-90
2024/01/15 03:49:35;;;;;;;5.03;0.70;;;-1.90;99.90;;;;;;5075600;28;20020;-90
2024/01/15 03:52:01;;;;;;;5.07;1.17;;;-1.90;99.90;;;;;;5059333;28;20043;-90
2024/01/15 03:54:27;;;;;;;4.45;0.93;;;-1.90;99.90;;;;;;5076069;28;20036;-90
2024/01/15 03:56:52;;;;;;;4.60;0.90;;;-1.90;99.90;;;;;;5077593;28;20050;-90
2024/01/15 03:59:18;;;;;;;3.35;1.08;;;-1.80;99.90;;;;;;5078493;28;20047;-90
2024/01/15 04:01:50;;;;;;;2.95;1.17;;;-1.80;99.90;;;;;;5078158;28;20116;-90
2024/01/15 04:04:17;;;;;;;5.05;1.02;;;-1.90;99.90;;;;;;5083329;28;20009;-90
2024/01/15 04:06:42;;;;;;;4.63;1.30;;;-1.90;99.90;;;;;;5098583;28;20040;-92
2024/01/15 04:09:09;;;;;;;6.22;1.58;;;-1.80;99.90;;;;;;5098681;28;20028;-90
2024/01/15 04:11:35;;;;;;;3.85;1.40;;;-1.90;99.90;;;;;;5097162;28;20040;-93
2024/01/15 04:14:01;;;;;;;4.15;1.30;;;-1.90;99.90;;;;;;5087357;28;20025;-91
2024/01/15 04:16:26;;;;;;;2.30;1.00;;;-1.80;99.90;;;;;;5079712;28;20033;-90
2024/01/15 04:18:52;;;;;;;2.42;0.60;;;-1.90;99.90;;;;;;5077039;28;20017;-90
2024/01/15 04:21:18;;;;;;;4.53;0.88;;;-1.80;99.90;;;;;;5077375;28;20090;-90
2024/01/15 04:23:44;;;;;;;1.95;0.70;;;-1.80;99.90;;;;;;5077455;28;20048;-90
2024/01/15 04:26:09;;;;;;;1.02;0.45;;;-1.80;99.90;;;;;;5076247;28;20127;-91
2024/01/15 04:28:35;;;;;;;2.25;0.70;;;-1.90;99.90;;;;;;5075299;28;20036;-91
2024/01/15 04:31:01;;;;;;;4.03;1.52;;;-1.90;99.90;;;;;;5075650;28;20090;-89
2024/01/15 04:33:26;;;;;;;3.20;0.68;;;-1.90;99.90;;;;;;5075417;28;20568;-88
2024/01/15 04:35:52;;;;;;;4.15;0.60;;;-1.90;99.90;;;;;;5075433;28;20124;-91
2024/01/15 04:38:18;;;;;;;2.67;0.65;;;-1.90;99.90;;;;;;5075516;28;20107;-89
2024/01/15 04:40:43;;;;;;;4.18;0.50;;;-1.90;99.90;;;;;;5075457;28;20032;-91
2024/01/15 04:43:10;;;;;;;4.20;1.08;;;-1.90;99.90;;;;;;5075016;28;20040;-88
2024/01/15 04:45:36;;;;;;;4.30;0.50;;;-1.90;99.90;;;;;;5075020;28;20119;-89
2024/01/15 04:48:03;;;;;;;1.65;0.50;;;-1.90;99.90;;;;;;5076233;28;20053;-90
2024/01/15 04:50:29;;;;;;;1.67;0.50;;;-1.90;99.90;;;;;;5077371;28;20028;-87
2024/01/15 04:52:54;;;;;;;1.77;0.88;;;-1.90;99.90;;;;;;5075764;28;20089;-90
2024/01/15 04:55:21;;;;;;;1.85;0.52;;;-1.90;99.90;;;;;;5077938;28;20104;-89
2024/01/15 04:57:47;;;;;;;1.08;0.52;;;-1.90;99.90;;;;;;5084079;28;20047;-91
2024/01/15 05:00:14;;;;;;;1.42;0.50;;;-2.00;99.90;;;;;;5076568;28;20032;-90
2024/01/15 05:02:41;;;;;;;3.38;0.70;;;-2.00;99.90;;;;;;5077386;28;20025;-91
2024/01/15 05:05:07;;;;;;;3.45;0.98;;;-2.00;99.90;;;;;;5078745;28;20123;-91
2024/01/15 05:07:32;;;;;;;3.42;0.52;;;-2.00;99.90;;;;;;5077132;28;20477;-91
2024/01/15 05:09:58;;;;;;;4.13;0.60;;;-2.00;99.90;;;;;;5073359;28;20044;-89
2024/01/15 05:12:25;;;;;;;1.65;0.45;;;-2.00;99.90;;;;;;5074275;28;20028;-90
2024/01/15 05:14:51;;;;;;;5.30;0.75;;;-2.00;99.90;;;;;;5075165;28;20634;-89
2024/01/15 05:17:16;;;;;;;5.60;0.70;;;-2.00;99.90;;;;;;5073825;28;20039;-89
2024/01/15 05:19:42;;;;;;;3.03;0.70;;;-1.90;99.90;;;;;;5073423;28;20037;-88
2024/01/15 05:22:08;;;;;;;1.70;0.50;;;-1.90;99.90;;;;;;5073845;28;20025;-90
2024/01/15 05:24:34;;;;;;;4.22;1.10;;;-1.80;99.90;;;;;;5074772;28;20070;-89
2024/01/15 05:27:00;;;;;;;2.85;0.70;;;-1.80;99.90;;;;;;5073364;28;20033;-89
2024/01/15 05:29:26;;;;;;;2.13;1.00;;;-1.80;99.90;;;;;;5072788;28;20478;-90
2024/01/15 05:31:52;;;;;;;6.38;1.50;;;-1.90;99.90;;;;;;5073563;28;20036;-90
2024/01/15 05:34:18;;;;;;;4.72;1.48;;;-1.80;99.90;;;;;;5073334;28;20492;-89
2024/01/15 05:36:43;;;;;;;4.78;1.23;;;-1.90;99.90;;;;;;5073342;28;20121;-90
2024/01/15 05:39:09;;;;;;;3.63;0.80;;;-1.90;99.90;;;;;;5073450;28;20031;-90
2024/01/15 05:41:35;;;;;;;2.03;0.70;;;-1.90;99.90;;;;;;5074060;28;20323;-90
2024/01/15 05:44:02;;;;;;;5.18;0.60;;;-2.00;99.90;;;;;;5073035;28;20113;-89
2024/01/15 05:46:27;;;;;;;2.13;0.73;;;-2.00;99.90;;;;;;5072843;28;20035;-90
2024/01/15 05:48:53;;;;;;;1.95;0.80;;;-2.00;99.90;;;;;;5072811;28;20028;-89
2024/01/15 05:51:19;;;;;;;1.00;0.52;;;-2.00;99.90;;;;;;5072868;28;20504;-89
2024/01/15 05:53:44;;;;;;;4.38;0.43;;;-2.00;99.90;;;;;;5073082;28;20154;-89
2024/01/15 05:56:11;;;;;;;1.73;0.45;;;-2.10;99.90;;;;;;5072925;28;20422;-89
2024/01/15 05:58:37;;;;;;;3.58;0.50;;;-2.10;99.90;;;;;;5073189;28;20354;-89
2024/01/15 06:01:04;;;;;;;2.28;0.50;;;-2.10;99.90;;;;;;5072985;28;20025;-90
2024/01/15 06:03:29;;;;;;;1.75;0.35;;;-2.10;99.90;;;;;;5072976;28;20024;-89
2024/01/15 06:05:55;;;;;;;2.65;0.60;;;-2.10;99.90;;;;;;5072789;28;20390;-89
2024/01/15 06:08:21;;;;;;;1.40;0.43;;;-2.10;99.90;;;;;;5073510;28;20035;-90
2024/01/15 06:10:46;;;;;;;3.25;0.40;;;-2.10;99.90;;;;;;5072396;28;20091;-89
2024/01/15 06:13:13;;;;;;;0.47;0.20;;;-2.10;99.90;;;;;;5072227;28;20025;-89
2024/01/15 06:15:39;;;;;;;1.35;0.70;;;-2.10;99.90;;;;;;5073299;28;20057;-90
2024/01/15 06:18:05;;;;;;;1.98;0.60;;;-2.10;99.90;;;;;;5072478;28;20094;-90
2024/01/15 06:20:31;;;;;;;4.13;0.63;;;-2.10;99.90;;;;;;5072165;28;20032;-89
2024/01/15 06:22:57;;;;;;;3.40;1.10;;;-2.10;99.90;;;;;;5074006;28;20024;-90
2024/01/15 06:25:22;;;;;;;0.40;0.40;;;-2.10;99.90;;;;;;5072607;28;20032;-90
2024/01/15 06:27:48;;;;;;;1.50;0.50;;;-2.10;99.90;;;;;;5072058;28;20090;-90
2024/01/15 06:30:14;;;;;;;3.97;1.30;;;-2.00;99.90;;;;;;5072933;28;20525;-89
2024/01/15 06:32:40;;;;;;;1.05;0.30;;;-2.00;99.90;;;;;;5055416;28;20028;-89
2024/01/15 06:35:06;;;;;;;3.97;0.30;;;-1.90;99.90;;;;;;5073438;28;20517;-89
2024/01/15 06:37:33;;;;;;;1.02;0.57;;;-1.90;99.90;;;;;;5038693;28;20037;-90
2024/01/15 06:39:59;;;;;;;1.42;0.52;;;-1.90;99.90;;;;;;5055413;28;20082;-89
2024/01/15 06:42:26;;;;;;;1.83;0.68;;;-1.80;99.90;;;;;;5057970;28;20473;-89
2024/01/15 06:44:52;;;;;;;1.33;0.70;;;-1.80;99.90;;;;;;5042686;28;20040;-88
2024/01/15 06:47:18;;;;;;;1.75;0.50;;;-1.80;99.90;;;;;;5059019;28;20098;-90
2024/01/15 06:49:43;;;;;;;0.77;0.40;;;-1.80;99.90;;;;;;5058979;28;20039;-90
2024/01/15 06:52:09;;;;;;;3.03;0.38;;;-1.70;99.90;;;;;;5059063;28;20120;-88
2024/01/15 06:54:35;;;;;;;1.25;0.50;;;-1.70;99.90;;;;;;5058745;28;20043;-88
2024/01/15 06:57:01;;;;;;;6.95;3.17;;;-1.70;99.90;;;;;;5059142;28;20436;-88
2024/01/15 06:59:26;;;;;;;2.88;0.43;;;-1.70;99.90;;;;;;5058695;28;20043;-89
2024/01/15 07:01:52;;;;;;;3.20;1.23;;;-1.70;99.90;;;;;;5058443;28;20067;-89
2024/01/15 07:04:17;;;;;;;2.63;0.30;;;-1.70;99.90;;;;;;5058565;28;20074;-89
2024/01/15 07:06:43;;;;;;;0.52;0.50;;;-1.70;99.90;;;;;;5059317;28;20132;-89
2024/01/15 07:09:10;;;;;;;0.98;0.32;;;-1.70;99.90;;;;;;5059154;28;20070;-89
2024/01/15 07:11:37;;;;;;;0.98;0.30;;;-1.60;99.90;;;;;;5060060;28;20035;-89
2024/01/15 07:14:02;;;;;;;0.90;0.55;;;-1.60;99.90;;;;;;5042782;28;20040;-89
2024/01/15 07:16:28;;;;;;;3.30;0.70;;;-1.60;99.90;;;;;;5065110;28;20033;-89
2024/01/15 07:18:58;;;;;;;3.72;0.80;;;-1.60;99.90;;;;;;5084289;28;20036;-89
2024/01/15 07:21:24;;;;;;;2.90;0.50;;;-1.60;99.90;;;;;;5059390;28;20497;-89
2024/01/15 07:23:49;;;;;;;2.20;0.43;;;-1.50;99.90;;;;;;5059590;28;20071;-89
2024/01/15 07:26:16;;;;;;;2.03;0.70;;;-1.50;99.90;;;;;;5060038;28;20016;-89
2024/01/15 07:28:42;;;;;;;2.03;0.70;;;-1.50;99.90;;;;;;5042958;28;20063;-89
2024/01/15 07:31:08;;;;;;;4.13;0.75;;;-1.50;99.90;;;;;;5073135;28;20056;-89
2024/01/15 07:33:34;;;;;;;3.55;0.80;;;-1.50;99.90;;;;;;5074139;28;20052;-89
2024/01/15 07:36:01;;;;;;;1.95;0.45;;;-1.50;99.90;;;;;;5074016;28;20127;-89
2024/01/15 07:38:27;;;;;;;1.80;0.80;;;-1.60;99.90;;;;;;5073997;28;20091;-89
2024/01/15 07:40:53;;;;;;;3.05;0.55;;;-1.60;99.90;;;;;;5074380;28;20506;-89
2024/01/15 07:43:19;;;;;;;2.25;0.60;;;-1.60;99.90;;;;;;5075554;28;20053;-89
2024/01/15 07:45:45;;;;;;;5.50;0.80;;;-1.60;99.90;;;;;;5073940;28;20028;-90
2024/01/15 07:48:11;;;;;;;6.18;2.15;;;-1.70;99.90;;;;;;5075441;28;20074;-90
2024/01/15 07:50:36;;;;;;;3.25;0.73;;;-1.70;99.90;;;;;;5075280;28;20082;-89
2024/01/15 07:53:03;;;;;;;2.97;0.60;;;-1.70;99.90;;;;;;5075065;28;20048;-87
2024/01/15 07:55:29;;;;;;;1.80;0.65;;;-1.70;99.90;;;;;;5077099;28;20462;-88
2024/01/15 07:57:58;;;;;;;3.80;0.60;;;-1.70;99.90;;;;;;5059697;28;20031;-88
2024/01/15 08:00:26;;;;;;;3.22;0.90;;;-1.70;99.90;;;;;;5059248;28;20499;-88
2024/01/15 08:02:52;;;;;;;5.85;1.50;;;-1.70;99.90;;;;;;5075429;28;20024;-88
2024/01/15 08:05:20;;;;;;;2.75;1.08;;;-1.70;99.90;;;;;;5057055;28;20455;-90
2024/01/15 08:07:47;;;;;;;5.10;0.98;;;-1.70;99.90;;;;;;5059473;28;20108;-90
2024/01/15 08:10:13;;;;;;;9.02;1.30;;;-1.70;99.90;;;;;;5074835;28;20035;-91
2024/01/15 08:12:43;;;;;;;4.88;1.00;;;-1.70;99.90;;;;;;5075589;28;20040;-90
2024/01/15 08:15:09;;;;;;;8.27;1.42;;;-1.60;99.90;;;;;;5075474;28;20506;-89
2024/01/15 08:17:44;;;;;;;8.27;1.63;;;-1.70;99.90;;;;;;5074875;28;20112;-90
2024/01/15 08:20:11;;;;;;;2.90;0.70;;;-1.70;99.90;;;;;;5077952;28;20062;-89
2024/01/15 08:22:39;;;;;;;9.95;1.85;;;-1.70;99.90;;;;;;5075995;28;20119;-88
2024/01/15 08:25:05;;;;;;;8.27;2.13;;;-1.70;99.90;;;;;;5075239;28;20036;-89
2024/01/15 08:27:33;;;;;;;4.78;1.63;;;-1.70;99.90;;;;;;5075615;28;20021;-89
2024/01/15 08:29:59;;;;;;;6.20;2.30;;;-1.70;99.90;;;;;;5074689;28;20130;-89
2024/01/15 08:32:28;;;;;;;7.07;1.95;;;-1.70;99.90;;;;;;5074896;28;20486;-90
2024/01/15 08:34:54;;;;;;;8.55;1.70;;;-1.70;99.90;;;;;;5075182;28;20036;-89
2024/01/15 08:37:19;;;;;;;6.53;1.63;;;-1.70;99.90;;;;;;5078061;28;20171;-89
2024/01/15 08:39:45;;;;;;;8.30;2.00;;;-1.70;99.90;;;;;;5079555;28;20079;-88
2024/01/15 08:42:11;;;;;;;9.25;1.52;;;-1.70;99.90;;;;;;5079030;28;20028;-88
2024/01/15 08:44:39;;;;;;;2.88;1.10;;;-1.70;99.90;;;;;;5081691;28;20071;-89
2024/01/15 08:47:05;;;;;;;3.38;0.85;;;-1.70;99.90;;;;;;5078396;28;20136;-89
2024/01/15 08:49:32;;;;;;;6.88;1.40;;;-1.70;99.90;;;;;;5075419;28;20024;-88
2024/01/15 08:51:58;;;;;;;2.65;1.10;;;-1.70;99.90;;;;;;5074057;28;20028;-89
2024/01/15 08:54:25;;;;;;;2.13;0.90;;;-1.70;99.90;;;;;;5074841;28;20028;-88
2024/01/15 08:56:51;;;;;;;2.53;0.90;;;-1.70;99.90;;;;;;5074309;28;20051;-89
2024/01/15 08:59:17;;;;;;;1.83;0.50;;;-1.70;99.90;;;;;;5074604;28;20136;-89
2024/01/15 09:01:43;;;;;;;4.28;0.50;;;-1.70;99.90;;;;;;5075211;28;20123;-88
2024/01/15 09:04:08;;;;;;;3.53;1.00;;;-1.70;99.90;;;;;;5073671;28;20508;-88
2024/01/15 09:06:35;;;;;;;2.35;0.77;;;-1.70;99.90;;;;;;5074797;28;20166;-90
2024/01/15 09:09:02;;;;;;;2.00;0.65;;;-1.60;99.90;;;;;;5074786;28;20020;-89
2024/01/15 09:11:31;;;;;;;6.05;1.52;;;-1.70;99.90;;;;;;5076538;28;20033;-89
2024/01/15 09:13:58;;;;;;;2.13;0.90;;;-1.60;99.90;;;;;;5097758;28;20032;-89
2024/01/15 09:16:24;;;;;;;4.93;0.82;;;-1.60;99.90;;;;;;5094194;28;20072;-89
2024/01/15 09:18:51;;;;;;;6.72;1.17;;;-1.50;99.90;;;;;;5086672;28;20032;-88
2024/01/15 09:21:17;;;;;;;1.65;0.52;;;-1.50;99.90;;;;;;5092300;28;20032;-87
2024/01/15 09:23:43;;;;;;;1.85;0.70;;;-1.50;99.90;;;;;;5112537;28;20023;-90
2024/01/15 09:26:13;;;;;;;3.05;0.90;;;-1.40;99.90;;;;;;5113018;28;20024;-91
2024/01/15 09:28:41;;;;;;;4.22;1.42;;;-1.40;99.90;;;;;;5115798;28;20035;-89
2024/01/15 09:31:10;;;;;;;2.38;0.90;;;-1.30;99.90;;;;;;5105973;28;20041;-91
2024/01/15 09:33:36;;;;;;;4.05;1.23;;;-1.20;99.90;;;;;;5096586;28;20029;-89
2024/01/15 09:36:07;;;;;;;4.88;1.02;;;-1.10;99.90;;;;;;5090950;28;20051;-90
2024/01/15 09:38:33;;;;;;;3.80;0.82;;;-0.90;99.90;;;;;;5108596;28;20130;-90
2024/01/15 09:40:59;;;;;;;5.20;0.75;;;-0.70;99.90;;;;;;5108024;28;20035;-89
2024/01/15 09:43:24;;;;;;;2.28;0.63;;;-0.50;99.90;;;;;;5110245;28;20428;-89
2024/01/15 09:45:50;;;;;;;8.57;1.10;;;-0.30;99.90;;;;;;5108235;28;20020;-90
2024/01/15 09:48:16;;;;;;;3.40;0.90;;;0.00;99.90;;;;;;5093355;28;20052;-91
2024/01/15 09:50:43;;;;;;;3.95;0.63;;;0.20;99.90;;;;;;5089112;28;20496;-90
2024/01/15 09:53:10;;;;;;;4.50;0.98;;;0.40;99.90;;;;;;5079048;28;20044;-91
2024/01/15 09:55:38;;;;;;;2.38;1.10;;;0.50;99.90;;;;;;5080139;28;20024;-91
2024/01/15 09:58:05;;;;;;;5.53;1.63;;;0.70;99.90;;;;;;5078737;28;20024;-90
2024/01/15 10:00:31;;;;;;;7.63;1.95;;;0.90;99.90;;;;;;5057481;28;20040;-92
2024/01/15 10:02:57;;;;;;;7.57;1.25;;;1.10;99.90;;;;;;5068151;28;20020;-90
2024/01/15 10:05:23;;;;;;;5.68;0.82;;;1.30;99.90;;;;;;5074566;28;20056;-90
2024/01/15 10:07:50;;;;;;;7.18;1.40;;;1.50;99.90;;;;;;5076152;28;20563;-90
2024/01/15 10:10:15;;;;;;;7.28;2.08;;;1.70;99.90;;;;;;5076653;28;20017;-90
2024/01/15 10:12:42;;;;;;;13.20;3.10;;;1.90;99.90;;;;;;5080954;28;20424;-91
2024/01/15 10:15:12;;;;;;;10.30;1.63;;;2.20;99.90;;;;;;5090169;28;20028;-91
2024/01/15 10:17:40;;;;;;;13.65;2.80;;;2.40;99.90;;;;;;5091502;28;20012;-90
2024/01/15 10:20:11;;;;;;;2.13;0.85;;;2.60;99.90;;;;;;5086328;28;20024;-90
2024/01/15 10:22:43;;;;;;;7.25;2.95;;;2.70;99.90;;;;;;5083409;28;20096;-90
2024/01/15 10:25:13;;;;;;;4.93;0.85;;;2.80;99.70;;;;;;5082346;28;20082;-90
2024/01/15 10:27:41;;;;;;;5.45;1.02;;;2.80;97.10;;;;;;5087357;28;20020;-91
2024/01/15 10:30:11;;;;;;;7.75;1.85;;;2.80;96.50;;;;;;5082488;28;20048;-91
2024/01/15 10:32:38;;;;;;;2.22;1.10;;;2.90;96.30;;;;;;5081753;28;20012;-91
2024/01/15 10:35:06;;;;;;;2.88;1.25;;;3.10;96.10;;;;;;5079905;28;20241;-90
2024/01/15 10:37:35;;;;;;;3.22;0.90;;;3.40;95.70;;;;;;5080908;28;20032;-90
2024/01/15 10:40:04;;;;;;;2.42;1.00;;;3.70;95.60;;;;;;5080158;28;20024;-90
2024/01/15 10:42:31;;;;;;;3.03;0.93;;;3.90;94.50;;;;;;5076141;28;20029;-89
2024/01/15 10:44:56;;;;;;;6.25;1.42;;;4.10;93.80;;;;;;5076512;28;20027;-89
2024/01/15 10:47:23;;;;;;;2.25;0.93;;;4.20;92.40;;;;;;5075954;28;20032;-90
2024/01/15 10:49:49;;;;;;;5.03;1.17;;;4.30;91.90;;;;;;5076178;28;20024;-89
2024/01/15 10:52:15;;;;;;;4.05;0.90;;;4.30;90.60;;;;;;5076660;28;20028;-90
2024/01/15 10:54:43;;;;;;;3.33;0.88;;;4.30;90.40;;;;;;5076794;28;20072;-89
2024/01/15 10:57:08;;;;;;;5.07;0.90;;;4.40;90.30;;;;;;5077009;28;20352;-88
2024/01/15 10:59:36;;;;;;;1.77;0.70;;;4.60;90.00;;;;;;5077008;28;20500;-88
2024/01/15 11:02:02;;;;;;;4.47;1.00;;;4.70;89.50;;;;;;5076193;28;20021;-88
2024/01/15 11:04:28;;;;;;;4.95;1.08;;;5.00;88.90;;;;;;5076728;28;20070;-90
2024/01/15 11:06:55;;;;;;;2.63;0.93;;;5.20;87.30;;;;;;5075922;28;20107;-89
2024/01/15 11:09:21;;;;;;;2.00;0.80;;;5.30;85.80;;;;;;5074418;28;20064;-89
2024/01/15 11:11:51;;;;;;;3.10;0.82;;;5.50;85.30;;;;;;5074349;28;20078;-90
2024/01/15 11:14:38;;;;;;;3.45;0.80;;;5.50;83.50;;;;;;5075869;28;20087;-88
2024/01/15 11:17:05;;;;;;;0.80;0.35;;;5.60;82.60;;;;;;5076770;28;20040;-89
2024/01/15 11:19:39;;;;;;;4.20;1.10;;;5.60;82.20;;;;;;5075977;28;20027;-88
2024/01/15 11:22:11;;;;;;;2.53;1.05;;;5.70;81.20;;;;;;5077495;28;20036;-89
2024/01/15 11:24:40;;;;;;;3.90;1.10;;;5.80;80.70;;;;;;5096524;28;20081;-89
2024/01/15 11:27:09;;;;;;;4.15;0.80;;;6.00;80.30;;;;;;5095001;28;20020;-89
2024/01/15 11:29:37;;;;;;;5.95;0.90;;;6.20;78.70;;;;;;5075149;28;20093;-89
2024/01/15 11:32:07;;;;;;;2.40;0.70;;;6.40;78.00;;;;;;5058758;28;20129;-91
2024/01/15 11:35:10;;;;;;;6.60;1.30;;;6.50;77.30;;;;;;5058816;28;20056;-88
2024/01/15 11:37:54;;;;;;;2.65;1.02;;;6.70;76.20;;;;;;5057917;28;20028;-88
2024/01/15 11:40:35;;;;;;;5.55;1.20;;;6.80;75.60;;;;;;5059660;28;20402;-88
2024/01/15 11:43:03;;;;;;;5.53;1.20;;;6.90;75.10;;;;;;5065069;28;20020;-90
2024/01/15 11:45:30;;;;;;;3.58;0.90;;;7.00;74.70;;;;;;5080434;28;20046;-92
2024/01/15 11:48:15;;;;;;;4.07;1.38;;;7.10;73.60;;;;;;5059402;28;20124;-94
2024/01/15 11:50:46;;;;;;;2.42;0.70;;;7.00;71.90;;;;;;5036045;28;20025;-92
2024/01/15 11:53:36;;;;;;;3.65;1.23;;;7.00;71.90;;;;;;5047894;28;20078;-94
2024/01/15 11:56:06;;;;;;;2.13;0.60;;;7.10;72.10;;;;;;5059588;28;20036;-93
2024/01/15 11:58:33;;;;;;;7.38;1.58;;;7.40;72.10;;;;;;5058181;28;20028;-93
2024/01/15 12:00:59;;;;;;;6.43;1.77;;;7.70;71.70;;;;;;5059997;28;20052;-93
2024/01/15 12:03:25;;;;;;;6.47;2.22;;;7.90;70.20;;;;;;5059002;28;20136;-94
2024/01/15 12:05:59;;;;;;;4.25;1.27;;;8.00;69.70;;;;;;5059125;28;20430;-95
2024/01/15 12:08:27;;;;;;;3.72;1.17;;;8.10;68.80;;;;;;5058962;28;20111;-95
2024/01/15 12:10:53;;;;;;;4.15;1.30;;;8.40;68.80;;;;;;5059135;28;20528;-93
2024/01/15 12:13:20;;;;;;;5.43;1.50;;;8.60;67.40;;;;;;5069609;28;20023;-90
2024/01/15 12:15:48;;;;;;;2.83;1.00;;;8.60;66.50;;;;;;5078656;28;20481;-92
2024/01/15 12:18:18;;;;;;;5.78;0.60;;;8.70;66.40;;;;;;5078926;28;20028;-92
2024/01/15 12:20:48;;;;;;;7.28;2.47;;;8.80;65.80;;;;;;5097723;28;20032;-93
2024/01/15 12:23:15;;;;;;;5.10;1.40;;;8.90;65.20;;;;;;5063614;28;20234;-90
2024/01/15 12:25:42;;;;;;;5.32;1.05;;;8.90;64.70;;;;;;5079995;28;20020;-93
2024/01/15 12:28:07;;;;;;;6.22;1.42;;;8.90;64.10;;;;;;5073645;28;20020;-91
2024/01/15 12:30:35;;;;;;;3.65;1.45;;;9.00;63.90;;;;;;5068111;28;20494;-90
2024/01/15 12:33:05;;;;;;;5.82;1.63;;;9.00;63.20;;;;;;5076182;28;20027;-92
2024/01/15 12:35:31;;;;;;;3.30;1.38;;;9.00;62.30;;;;;;5075510;28;20048;-91
2024/01/15 12:38:00;;;;;;;3.33;0.80;;;9.10;62.50;;;;;;5080414;28;20023;-90
2024/01/15 12:40:26;;;;;;;2.53;0.77;;;9.20;61.50;;;;;;5095092;28;20131;-92
2024/01/15 12:42:52;;;;;;;8.98;2.35;;;9.40;61.80;;;;;;5082167;28;20028;-92
2024/01/15 12:45:18;;;;;;;4.63;1.35;;;9.70;61.10;;;;;;5073064;28;20482;-92